Tiempo atmosférico en la estación meteorológica de Tarazona, Zaragoza (475 m.)



Fecha
DESCASC
Temp. máxima en grados centígrados (hora)
DESCASC
Temp. mínima en grados centígrados (hora)
DESCASC
Temp. media en grados centígrados
DESCASC
Racha de viento máxima en m/sg (hora)
DESCASC
Velocidad máxima media en intervalos de 10 minutos(hora)
DESCASC
Precipitaciones diarias en mm
DESCASC
Precipitaciones de 00:00 a 06:00 en mm
DESCASC
Precipitaciones de 06:00 a 12:00 en mm
DESCASC
Precipitaciones de 12:00 a 18:00 en mm
DESCASC
Precipitaciones de 18:00 a 24:00 en mm
DESCASC
22-11-2020 12 (14:50) -1.6 (08:30) 5.2 4.17 (18:40) 2.5 (04:40) 0 0 0 0 0
21-11-2020 13.1 (15:00) 1.2 (07:00) 7.2 5 (04:10) 3.33 (18:30) 0 0 0 0 0
20-11-2020 13.7 (13:20) 7.2 (06:50) 10.4 12.22 (15:00) 6.94 (13:50) 0 0 0 0 0
19-11-2020 18.2 (14:20) 7 (00:00) 12.6 13.33 (16:20) 6.11 (16:10) 0 0 0 0 0
18-11-2020 15.9 (15:40) 4.2 (00:00) 10 3.89 (13:40) 2.22 (23:40) 0 0 0 0 0
17-11-2020 17.1 (15:20) 4.4 (00:00) 10.8 3.89 (14:50) 2.5 (02:40) 0 0 0 0 0
16-11-2020 14.7 (14:10) 6.9 (00:00) 10.8 8.89 (01:40) 4.72 (01:50) 0.2 0 0.2 0 0
15-11-2020 21.3 (14:40) 7.6 (00:00) 14.4 10.28 (14:00) 5.56 (14:10) 0.2 0 0 0 0.2
14-11-2020 12 (13:20) 7.2 (00:00) 9.6 4.17 (13:10) 2.5 (08:10) 0 0 0 0 0
13-11-2020 10.6 (15:40) 7.8 (00:00) 9.2 3.61 (20:20) 1.94 (00:40) 0 0 0 0 0
12-11-2020 10.3 (15:40) 6.5 (00:00) 8.4 4.17 (20:20) 2.5 (20:00) 0 0 0 0 0
11-11-2020 12.2 (15:00) 4.4 (00:00) 8.3 3.33 (17:40) 1.94 (01:20) 0 0 0 0 0
10-11-2020 17.7 (14:30) 8.6 (00:00) 13.2 8.33 (11:00) 4.17 (11:10) 0 0 0 0 0
09-11-2020 15.2 (14:40) 6 (00:00) 10.6 4.44 (22:30) 2.78 (20:40) 0 0 0 0 0
08-11-2020 17.2 (16:00) 6.9 (00:00) 12.1 6.11 (16:40) 3.61 (16:40) 0 0 0 0 0
07-11-2020 16.7 (14:40) 11.4 (00:00) 14.1 12.78 (05:30) 6.94 (05:30) 10.6 2.6 8 0 0
06-11-2020 15.6 (16:20) 11.8 (00:00) 13.7 15.28 (20:50) 9.17 (22:10) 1.6 0.8 0.4 0 0.4
05-11-2020 12 (13:30) 7.5 (00:00) 9.8 7.5 (23:59) 4.17 (23:59) 6 0.4 0 0 5.6
04-11-2020 10 (15:20) 7.5 (00:00) 8.8 8.06 (11:40) 4.17 (10:30) 1.6 0 0 0 1.6
03-11-2020 14.2 (00:00) 8.7 (00:00) 11.4 10.28 (18:00) 5.56 (17:50) 3.4 0 2.8 0.6 0
02-11-2020 20.6 (14:30) 9.9 (00:00) 15.3 5.56 (14:40) 2.78 (15:00) 0 0 0 0 0
01-11-2020 21.6 (15:20) 7.9 (00:00) 14.8 4.44 (13:30) 2.5 (14:10) 0 0 0 0 0
31-10-2020 21 (15:00) 6 (00:00) 13.5 6.39 (16:00) 3.33 (16:00) 0 0 0 0 0
30-10-2020 18.5 (15:00) 4.9 (00:00) 11.7 4.44 (13:30) 2.5 (18:20) 0 0 0 0 0
29-10-2020 19.5 (14:50) 7.5 (00:00) 13.5 4.72 (15:20) 2.78 (09:00) 0 0 0 0 0
28-10-2020 21.2 (14:00) 9 (00:00) 15.1 9.17 (12:30) 5 (13:00) 0 0 0 0 0
27-10-2020 17.2 (14:20) 8.5 (00:00) 12.9 13.33 (14:40) 6.39 (14:40) 0 0 0 0 0
26-10-2020 15.9 (13:30) 6.8 (00:00) 11.3 12.22 (11:40) 6.11 (13:00) 0 0 0 0 0

Gráficas

Temp. máximas Temp. mínimas Temp. medias Precipitaciones Rachas de viento máximas Velocidades máximas media en intervalos de 10 minutos

Datos horarios

Fecha y hora oficial Temperatura (ºC) Velocidad del viento (km/h) Dirección del viento Racha (km/h) Dirección de racha Precipitación (mm) Presión (hPa) Tendencia (hPa) Humedad (%)
2020-11-24 23:00:00 2.7 6 Oeste 12 Oeste 0 -- -- 90
2020-11-24 22:00:00 3.1 4 Oeste 7 Oeste 0 -- -- 88
2020-11-24 21:00:00 3.8 3 Oeste 10 Oeste 0 -- -- 87
2020-11-24 20:00:00 4.5 5 Oeste 10 Oeste 0 -- -- 86
2020-11-24 19:00:00 5.8 3 Sudoeste 6 Sudoeste 0 -- -- 81
2020-11-24 18:00:00 8.1 2 Oeste 6 Oeste 0 -- -- 73
2020-11-24 17:00:00 9.4 6 Noroeste 9 Norte 0 -- -- 69
2020-11-24 16:00:00 10.5 5 Norte 14 Noroeste 0 -- -- 64
2020-11-24 15:00:00 10.4 6 Norte 13 Nordeste 0 -- -- 63
2020-11-24 14:00:00 9.8 4 Norte 9 Nordeste 0 -- -- 66
2020-11-24 13:00:00 8.6 4 Norte 12 Nordeste 0 -- -- 69
2020-11-24 12:00:00 7.5 5 Nordeste 10 Este 0 -- -- 71
2020-11-24 11:00:00 6.4 5 Este 10 Este 0 -- -- 76
2020-11-24 10:00:00 3.8 3 Este 7 Oeste 0 -- -- 84
2020-11-24 09:00:00 0.1 3 Oeste 6 Oeste 0 -- -- 90
2020-11-24 08:00:00 -0.3 4 Oeste 8 Oeste 0 -- -- 89
2020-11-24 07:00:00 -0.2 4 Oeste 9 Oeste 0 -- -- 88
2020-11-24 06:00:00 0.2 2 Oeste 6 Oeste 0 -- -- 87
2020-11-24 05:00:00 0.4 0 Calma 8 Oeste 0 -- -- 86
2020-11-24 04:00:00 0.7 5 Oeste 8 Oeste 0 -- -- 85
2020-11-24 03:00:00 1.2 4 Oeste 8 Oeste 0 -- -- 84
2020-11-24 02:00:00 1.5 3 Oeste 6 Oeste 0 -- -- 84
2020-11-24 01:00:00 2.1 0 Calma 6 Oeste 0 -- -- 82
2020-11-24 00:00:00 2.5 5 Oeste 9 Oeste 0 -- -- 82
2020-11-23 23:00:00 2.6 5 Oeste 10 Oeste 0 -- -- 83
2020-11-23 22:00:00 3.4 8 Oeste 12 Oeste 0 -- -- 82
2020-11-23 21:00:00 4 4 Oeste 7 Oeste 0 -- -- 82
2020-11-23 20:00:00 4.7 0 Calma 12 Oeste 0 -- -- 82
2020-11-23 19:00:00 5.2 5 Oeste 8 Oeste 0 -- -- 80
2020-11-23 18:00:00 7.7 5 Oeste 7 Oeste 0 -- -- 70
2020-11-23 17:00:00 10.9 3 Nordeste 7 Nordeste 0 -- -- 58
2020-11-23 16:00:00 11.8 5 Nordeste 10 Nordeste 0 -- -- 54
2020-11-23 15:00:00 11.9 5 Nordeste 11 Este 0 -- -- 56
2020-11-23 14:00:00 11.6 5 Este 15 Este 0 -- -- 57
2020-11-23 13:00:00 10.9 5 Este 12 Nordeste 0 -- -- 59
2020-11-23 12:00:00 10 4 Nordeste 10 Este 0 -- -- 62
2020-11-23 11:00:00 8.5 5 Este 9 Nordeste 0 -- -- 68
2020-11-23 10:00:00 5.2 2 Sudeste 5 Este 0 -- -- 79
2020-11-23 09:00:00 2.3 5 Oeste 8 Oeste 0 -- -- 87
2020-11-23 08:00:00 1.1 0 Calma 12 Oeste 0 -- -- 89
2020-11-23 07:00:00 0.8 2 Oeste 6 Oeste 0 -- -- 91
2020-11-23 06:00:00 0.7 3 Oeste 5 Oeste 0 -- -- 88
2020-11-23 05:00:00 1.1 4 Oeste 13 Oeste 0 -- -- 88
2020-11-23 04:00:00 1.6 9 Oeste 12 Oeste 0 -- -- 86
2020-11-23 03:00:00 1.7 3 Oeste 9 Oeste 0 -- -- 87
2020-11-23 02:00:00 1.5 3 Oeste 9 Oeste 0 -- -- 87
2020-11-23 01:00:00 1.8 6 Oeste 8 Oeste 0 -- -- 86
2020-11-23 00:00:00 2.3 2 Oeste 7 Oeste 0 -- -- 86
2020-11-22 23:00:00 2.4 5 Oeste 8 Oeste 0 -- -- 84
2020-11-22 22:00:00 2.7 0 Calma 9 Oeste 0 -- -- 84
2020-11-22 21:00:00 3.2 7 Oeste 10 Oeste 0 -- -- 82
2020-11-22 20:00:00 3.8 8 Oeste 10 Oeste 0 -- -- 82
2020-11-22 19:00:00 4.5 6 Oeste 15 Oeste 0 -- -- 79
2020-11-22 18:00:00 8.2 2 Oeste 5 Oeste 0 -- -- 64
2020-11-22 17:00:00 10.7 3 Nordeste 6 Nordeste 0 -- -- 53
2020-11-22 16:00:00 11.7 3 Nordeste 8 Nordeste 0 -- -- 49
2020-11-22 15:00:00 11.7 3 Nordeste 10 Nordeste 0 -- -- 50
2020-11-22 14:00:00 10.7 5 Nordeste 12 Nordeste 0 -- -- 54
2020-11-22 13:00:00 10.1 5 Este 13 Nordeste 0 -- -- 54
2020-11-22 12:00:00 9 3 Este 7 Este 0 -- -- 58
2020-11-22 11:00:00 6.9 4 Este 8 Este 0 -- -- 63
2020-11-22 10:00:00 4.1 0 Calma 4 Sur 0 -- -- 75
2020-11-22 09:00:00 -0.7 2 Oeste 9 Oeste 0 -- -- 87
2020-11-22 08:00:00 -1.5 3 Oeste 10 Oeste 0 -- -- 84
2020-11-22 07:00:00 -1.3 5 Oeste 8 Oeste 0 -- -- 85
2020-11-22 06:00:00 -1.3 3 Oeste 13 Oeste 0 -- -- 84
2020-11-22 05:00:00 -0.6 3 Oeste 14 Oeste 0 -- -- 83
2020-11-22 04:00:00 -0.4 4 Oeste 14 Oeste 0 -- -- 81
2020-11-22 03:00:00 0 4 Oeste 9 Oeste 0 -- -- 80
2020-11-22 02:00:00 0.4 7 Oeste 10 Oeste 0 -- -- 80
2020-11-22 01:00:00 1.3 6 Oeste 11 Oeste 0 -- -- 77
2020-11-22 00:00:00 1.6 8 Oeste 13 Oeste 0 -- -- 77
2020-11-21 23:00:00 1.7 2 Oeste 9 Oeste 0 -- -- 77
2020-11-21 22:00:00 2.4 3 Oeste 11 Oeste 0 -- -- 76
2020-11-21 21:00:00 3.4 3 Oeste 12 Oeste 0 -- -- 73
2020-11-21 20:00:00 4.3 0 Calma 6 Oeste 0 -- -- 71
2020-11-21 19:00:00 4.9 5 Oeste 14 Oeste 0 -- -- 71
2020-11-21 18:00:00 8.8 2 Oeste 9 Este 0 -- -- 55
2020-11-21 17:00:00 11.5 6 Este 13 Nordeste 0 -- -- 44
2020-11-21 16:00:00 12.4 7 Nordeste 13 Nordeste 0 -- -- 39
2020-11-21 15:00:00 13.1 5 Este 10 Nordeste 0 -- -- 36
2020-11-21 14:00:00 11.9 9 Nordeste 17 Nordeste 0 -- -- 38
2020-11-21 13:00:00 11.5 6 Nordeste 15 Nordeste 0 -- -- 39
2020-11-21 12:00:00 10.8 6 Este 11 Este 0 -- -- 40
2020-11-21 11:00:00 8.7 6 Este 12 Este 0 -- -- 54
2020-11-21 10:00:00 6.4 4 Este 7 Este 0 -- -- 44
2020-11-21 09:00:00 2.8 0 Calma 12 Oeste 0 -- -- 54
2020-11-21 08:00:00 2.4 3 Oeste 10 Oeste 0 -- -- 52
2020-11-21 07:00:00 1.2 4 Oeste 12 Noroeste 0 -- -- 59
2020-11-21 06:00:00 2.3 3 Sudoeste 11 Oeste 0 -- -- 55
2020-11-21 05:00:00 2.4 5 Oeste 18 Oeste 0 -- -- 54
2020-11-21 04:00:00 2.7 9 Oeste 17 Oeste 0 -- -- 53
2020-11-21 03:00:00 3.6 4 Sudoeste 13 Oeste 0 -- -- 52
2020-11-21 02:00:00 6.3 5 Noroeste 16 Norte 0 -- -- 39
2020-11-21 01:00:00 8.1 6 Noroeste 18 Noroeste 0 -- -- 32
2020-11-21 00:00:00 8.8 12 Noroeste 23 Oeste 0 -- -- 31
2020-11-20 23:00:00 8.5 9 Noroeste 25 Oeste 0 -- -- 34
2020-11-20 22:00:00 9.2 10 Oeste 33 Noroeste 0 -- -- 35
2020-11-20 21:00:00 9 17 Noroeste 28 Noroeste 0 -- -- 48
2020-11-20 20:00:00 9 13 Oeste 42 Noroeste 0 -- -- 55
2020-11-20 19:00:00 9.4 17 Oeste 33 Noroeste 0 -- -- 56
2020-11-20 18:00:00 10.4 20 Noroeste 37 Noroeste 0 -- -- 51
2020-11-20 17:00:00 11.5 16 Noroeste 37 Noroeste 0 -- -- 46
2020-11-20 16:00:00 13.1 18 Noroeste 41 Noroeste 0 -- -- 51
2020-11-20 15:00:00 13.2 25 Noroeste 44 Noroeste 0 -- -- 48
2020-11-20 14:00:00 13.4 23 Noroeste 42 Noroeste 0 -- -- 43
2020-11-20 13:00:00 13.6 20 Noroeste 36 Noroeste 0 -- -- 42
2020-11-20 12:00:00 12.8 17 Noroeste 36 Noroeste 0 -- -- 49
2020-11-20 11:00:00 11.5 21 Noroeste 37 Norte 0 -- -- 60
2020-11-20 10:00:00 10.4 20 Noroeste 39 Noroeste 0 -- -- 65
2020-11-20 09:00:00 8.8 18 Noroeste 34 Oeste 0 -- -- 69
2020-11-20 08:00:00 7.3 13 Oeste 27 Noroeste 0 -- -- 74
2020-11-20 07:00:00 7.2 14 Oeste 25 Noroeste 0 -- -- 75
2020-11-20 06:00:00 7.7 16 Noroeste 31 Oeste 0 -- -- 74
2020-11-20 05:00:00 7.8 12 Oeste 25 Noroeste 0 -- -- 74
2020-11-20 04:00:00 8 12 Oeste 22 Oeste 0 -- -- 74
2020-11-20 03:00:00 8.3 13 Oeste 26 Noroeste 0 -- -- 73
2020-11-20 02:00:00 9 17 Noroeste 29 Noroeste 0 -- -- 72
2020-11-20 01:00:00 9.6 12 Noroeste 38 Noroeste 0 -- -- 73
2020-11-20 00:00:00 9.8 19 Noroeste 35 Noroeste 0 -- -- 76
2020-11-19 23:00:00 9.6 14 Noroeste 26 Norte 0 -- -- 80
2020-11-19 22:00:00 8.2 6 Oeste 13 Oeste 0 -- -- 85
2020-11-19 21:00:00 9.2 6 Noroeste 19 Norte 0 -- -- 83
2020-11-19 20:00:00 10.4 10 Norte 31 Norte 0 -- -- 80
2020-11-19 19:00:00 11.4 15 Norte 32 Norte 0 -- -- 78
2020-11-19 18:00:00 12.9 14 Norte 33 Norte 0 -- -- 74
2020-11-19 17:00:00 14.1 16 Norte 48 Norte 0 -- -- 71
2020-11-19 16:00:00 15.2 19 Norte 42 Norte 0 -- -- 71
2020-11-19 15:00:00 17.6 18 Norte 35 Noroeste 0 -- -- 67
2020-11-19 14:00:00 18.1 17 Norte 42 Norte 0 -- -- 66
2020-11-19 13:00:00 16.8 14 Norte 35 Norte 0 -- -- 71
2020-11-19 12:00:00 17.3 17 Norte 36 Noroeste 0 -- -- 71
2020-11-19 11:00:00 17.5 16 Noroeste 38 Noroeste 0 -- -- 70
2020-11-19 10:00:00 16.4 18 Noroeste 29 Norte 0 -- -- 71
2020-11-19 09:00:00 14 11 Oeste 21 Oeste 0 -- -- 78
2020-11-19 08:00:00 12.5 10 Oeste 18 Oeste 0 -- -- 79
2020-11-19 07:00:00 10.2 10 Oeste 15 Oeste 0 -- -- 84
2020-11-19 06:00:00 9.2 8 Oeste 14 Oeste 0 -- -- 87
2020-11-19 05:00:00 7.3 6 Oeste 9 Oeste 0 -- -- 89
2020-11-19 04:00:00 8 3 Oeste 12 Oeste 0 -- -- 87
2020-11-19 03:00:00 8 3 Sudoeste 13 Oeste 0 -- -- 89
2020-11-19 02:00:00 7.1 3 Oeste 12 Oeste 0 -- -- 91
2020-11-19 01:00:00 7 3 Oeste 8 Oeste 0 -- -- 89
2020-11-19 00:00:00 7.6 3 Oeste 10 Oeste 0 -- -- 88
2020-11-18 23:00:00 8.2 8 Oeste 13 Oeste 0 -- -- 87
2020-11-18 22:00:00 8.9 2 Sudoeste 10 Oeste 0 -- -- 85
2020-11-18 21:00:00 9.8 4 Noroeste 8 Oeste 0 -- -- 83
2020-11-18 20:00:00 10.6 6 Oeste 9 Oeste 0 -- -- 82
2020-11-18 19:00:00 11.5 0 Calma 5 Oeste 0 -- -- 84
2020-11-18 18:00:00 12.7 3 Oeste 6 Oeste 0 -- -- 79
2020-11-18 17:00:00 15.1 2 Nordeste 4 Este 0 -- -- 68
2020-11-18 16:00:00 15.8 3 Nordeste 6 Este 0 -- -- 66
2020-11-18 15:00:00 15.5 3 Este 10 Nordeste 0 -- -- 68
2020-11-18 14:00:00 14.6 4 Este 14 Norte 0 -- -- 71
2020-11-18 13:00:00 13.1 4 Norte 12 Nordeste 0 -- -- 74
2020-11-18 12:00:00 12.2 4 Nordeste 9 Nordeste 0 -- -- 78
2020-11-18 11:00:00 10.4 2 Norte 6 Nordeste 0 -- -- 84
2020-11-18 10:00:00 7.9 3 Este 5 Sudeste 0 -- -- 95
2020-11-18 09:00:00 4.8 0 Calma 8 Oeste 0 -- -- 96
2020-11-18 08:00:00 4.2 0 Calma 6 Norte 0 -- -- 95
2020-11-18 07:00:00 4.7 3 Oeste 7 Oeste 0 -- -- 95
2020-11-18 06:00:00 4.8 0 Calma 8 Oeste 0 -- -- 95
2020-11-18 05:00:00 5 2 Sudoeste 9 Oeste 0 -- -- 93
2020-11-18 04:00:00 5.4 0 Calma 10 Oeste 0 -- -- 92
2020-11-18 03:00:00 6 0 Calma 7 Sudoeste 0 -- -- 92
2020-11-18 02:00:00 6 4 Oeste 7 Oeste 0 -- -- 91
2020-11-18 01:00:00 6.4 5 Oeste 9 Oeste 0 -- -- 90
2020-11-18 00:00:00 6.7 3 Oeste 5 Sudoeste 0 -- -- 88
2020-11-17 23:00:00 7.4 2 Sudoeste 13 Oeste 0 -- -- 86
2020-11-17 22:00:00 8.3 3 Oeste 10 Oeste 0 -- -- 84
2020-11-17 21:00:00 8.5 3 Sudoeste 8 Sudoeste 0 -- -- 83
2020-11-17 20:00:00 9.5 3 Oeste 11 Oeste 0 -- -- 81
2020-11-17 19:00:00 10.3 5 Oeste 10 Oeste 0 -- -- 78
2020-11-17 18:00:00 13.6 4 Noroeste 6 Nordeste 0 -- -- 67
2020-11-17 17:00:00 16.2 0 Calma 9 Nordeste 0 -- -- 56
2020-11-17 16:00:00 16.6 6 Nordeste 13 Este 0 -- -- 54
2020-11-17 15:00:00 16.8 7 Nordeste 14 Nordeste 0 -- -- 54
2020-11-17 14:00:00 16.2 5 Este 13 Este 0 -- -- 60
2020-11-17 13:00:00 14.8 6 Este 13 Este 0 -- -- 63
2020-11-17 12:00:00 13.5 4 Este 8 Este 0 -- -- 65
2020-11-17 11:00:00 11.6 4 Este 10 Este 0 -- -- 73
2020-11-17 10:00:00 9.2 3 Este 8 Oeste 0 -- -- 78
2020-11-17 09:00:00 5.4 0 Calma 8 Oeste 0 -- -- 84
2020-11-17 08:00:00 4.6 3 Oeste 9 Oeste 0 -- -- 84
2020-11-17 07:00:00 5.1 4 Oeste 10 Oeste 0 -- -- 83
2020-11-17 06:00:00 5.8 4 Sur 13 Oeste 0 -- -- 83
2020-11-17 05:00:00 4.8 3 Oeste 6 Sudoeste 0 -- -- 91
2020-11-17 04:00:00 5.2 2 Sudoeste 9 Oeste 0 -- -- 91
2020-11-17 03:00:00 5.2 4 Oeste 14 Oeste 0 -- -- 93
2020-11-17 02:00:00 5.9 2 Oeste 10 Oeste 0 -- -- 93
2020-11-17 01:00:00 6.5 3 Oeste 8 Noroeste 0 -- -- 92
2020-11-17 00:00:00 7.1 3 Sudoeste 13 Oeste 0 -- -- 92
2020-11-16 23:00:00 7.3 2 Sudoeste 12 Oeste 0 -- -- 91
2020-11-16 22:00:00 7.9 9 Oeste 12 Oeste 0 -- -- 88
2020-11-16 21:00:00 9 8 Oeste 10 Oeste 0 -- -- 84
2020-11-16 20:00:00 9.5 3 Oeste 10 Oeste 0 -- -- 80
2020-11-16 19:00:00 11.1 5 Oeste 12 Noroeste 0 -- -- 79
2020-11-16 18:00:00 12.6 6 Noroeste 18 Nordeste 0 -- -- 74
2020-11-16 17:00:00 13.8 10 Norte 24 Norte 0 -- -- 69
2020-11-16 16:00:00 14.5 10 Norte 30 Noroeste 0 -- -- 70
2020-11-16 15:00:00 14.5 11 Norte 29 Norte 0 -- -- 67
2020-11-16 14:00:00 14.6 9 Norte 23 Norte 0 -- -- 71
2020-11-16 13:00:00 13.8 13 Norte 27 Norte 0 -- -- 73
2020-11-16 12:00:00 13.3 11 Norte 22 Nordeste 0 -- -- 78
2020-11-16 11:00:00 13.3 15 Norte 27 Norte 0 -- -- 76
2020-11-16 10:00:00 12.7 8 Noroeste 22 Noroeste 0.2 -- -- 80
2020-11-16 09:00:00 12.1 9 Noroeste 17 Noroeste 0 -- -- 83
2020-11-16 08:00:00 11.6 6 Noroeste 18 Noroeste 0 -- -- 85
2020-11-16 07:00:00 11.7 11 Noroeste 16 Noroeste 0 -- -- 87
2020-11-16 06:00:00 11.6 6 Oeste 14 Noroeste 0 -- -- 88
2020-11-16 05:00:00 11.4 2 Oeste 7 Norte 0 -- -- 95
2020-11-16 04:00:00 11.3 2 Noroeste 15 Norte 0 -- -- 95
2020-11-16 03:00:00 11.5 5 Norte 22 Norte 0 -- -- 92
2020-11-16 02:00:00 12.2 12 Norte 32 Norte 0 -- -- 91
2020-11-16 01:00:00 13 12 Norte 28 Norte 0 -- -- 92
2020-11-16 00:00:00 13.8 17 Norte 32 Noroeste 0.2 -- -- 91
2020-11-15 23:00:00 17.6 19 Oeste 37 Noroeste 0 -- -- 70
2020-11-15 22:00:00 17.7 18 Oeste 36 Sudoeste 0 -- -- 69
2020-11-15 21:00:00 17.8 15 Oeste 34 Oeste 0 -- -- 68
2020-11-15 20:00:00 18 12 Oeste 28 Sudoeste 0 -- -- 68
2020-11-15 19:00:00 18 11 Oeste 27 Oeste 0 -- -- 68
2020-11-15 18:00:00 18.1 10 Oeste 27 Oeste 0 -- -- 69
2020-11-15 17:00:00 18.9 13 Oeste 35 Noroeste 0 -- -- 65
2020-11-15 16:00:00 19.5 17 Oeste 35 Oeste 0 -- -- 63
2020-11-15 15:00:00 20.9 12 Oeste 32 Noroeste 0 -- -- 59
2020-11-15 14:00:00 20.5 18 Oeste 37 Noroeste 0 -- -- 60
2020-11-15 13:00:00 19.7 12 Oeste 33 Oeste 0 -- -- 63
2020-11-15 12:00:00 18.4 11 Oeste 28 Oeste 0 -- -- 67
2020-11-15 11:00:00 14 5 Sudeste 18 Nordeste 0 -- -- 84
2020-11-15 10:00:00 13.7 7 Este 17 Este 0 -- -- 82
2020-11-15 09:00:00 10.3 6 Sur 16 Oeste 0 -- -- 93
2020-11-15 08:00:00 9.1 4 Oeste 11 Noroeste 0 -- -- 93
2020-11-15 07:00:00 9 6 Oeste 11 Sudoeste 0 -- -- 95
2020-11-15 06:00:00 8.6 6 Sudoeste 10 Noroeste 0 -- -- 96
2020-11-15 05:00:00 8.8 2 Oeste 15 Sudoeste 0 -- -- 95
2020-11-15 04:00:00 9.1 4 Oeste 10 Sur 0 -- -- 96
2020-11-15 03:00:00 8.6 2 Sudeste 12 Sur 0 -- -- 97
2020-11-15 02:00:00 7.8 5 Oeste 15 Noroeste 0 -- -- 97
2020-11-15 01:00:00 8.1 0 Calma 9 Noroeste 0 -- -- 96
2020-11-15 00:00:00 8.2 5 Oeste 14 Oeste 0 -- -- 96
2020-11-14 23:00:00 8.1 6 Oeste 12 Oeste 0 -- -- 96
2020-11-14 22:00:00 9.3 3 Sudoeste 6 Oeste 0 -- -- 95
2020-11-14 21:00:00 9.9 5 Oeste 11 Oeste 0 -- -- 95
2020-11-14 20:00:00 10.3 2 Oeste 9 Oeste 0 -- -- 93
2020-11-14 19:00:00 11.1 5 Norte 11 Norte 0 -- -- 91
2020-11-14 18:00:00 11.5 4 Sudoeste 9 Sudeste 0 -- -- 91
2020-11-14 17:00:00 11.5 4 Sudeste 13 Sur 0 -- -- 89
2020-11-14 16:00:00 11.5 6 Sur 14 Sudeste 0 -- -- 87
2020-11-14 15:00:00 11.8 6 Sur 15 Sur 0 -- -- 84
2020-11-14 14:00:00 12 6 Sur 15 Sudoeste 0 -- -- 83
2020-11-14 13:00:00 11.4 5 Sur 11 Sur 0 -- -- 86
2020-11-14 12:00:00 9.6 3 Sudoeste 8 Sur 0 -- -- 92
2020-11-14 11:00:00 9 3 Sur 11 Oeste 0 -- -- 95
2020-11-14 10:00:00 8 5 Oeste 12 Oeste 0 -- -- 97
2020-11-14 09:00:00 7.7 5 Oeste 14 Noroeste 0 -- -- 97
2020-11-14 08:00:00 7.3 8 Noroeste 11 Oeste 0 -- -- 97
2020-11-14 07:00:00 7.8 7 Sudoeste 14 Sudoeste 0 -- -- 98
2020-11-14 06:00:00 7.9 8 Sur 14 Sudoeste 0 -- -- 97
2020-11-14 05:00:00 8.1 7 Sudoeste 12 Sudoeste 0 -- -- 97
2020-11-14 04:00:00 8.4 7 Sur 13 Sur 0 -- -- 97
2020-11-14 03:00:00 8 0 Calma 6 Oeste 0 -- -- 97
2020-11-14 02:00:00 7.9 4 Oeste 6 Oeste 0 -- -- 96
2020-11-14 01:00:00 8.3 5 Sudoeste 9 Sudoeste 0 -- -- 96
2020-11-14 00:00:00 8.6 2 Sudoeste 8 Sudoeste 0 -- -- 96
2020-11-13 23:00:00 8.9 3 Este 10 Sudoeste 0 -- -- 95
2020-11-13 22:00:00 9.1 6 Sudeste 12 Sudeste 0 -- -- 95
2020-11-13 21:00:00 9.4 0 Calma 13 Sur 0 -- -- 95
2020-11-13 20:00:00 9.5 3 Este 6 Este 0 -- -- 95
2020-11-13 19:00:00 9.5 3 Este 7 Sudeste 0 -- -- 94
2020-11-13 18:00:00 9.7 3 Este 8 Nordeste 0 -- -- 92
2020-11-13 17:00:00 9.9 5 Nordeste 12 Norte 0 -- -- 91
2020-11-13 16:00:00 10.4 5 Norte 9 Norte 0 -- -- 88
2020-11-13 15:00:00 10.2 4 Norte 10 Nordeste 0 -- -- 88
2020-11-13 14:00:00 10 6 Nordeste 12 Este 0 -- -- 89
2020-11-13 13:00:00 9.2 0 Calma 8 Este 0 -- -- 93
2020-11-13 12:00:00 8.7 4 Sudeste 8 Este 0 -- -- 95
2020-11-13 11:00:00 8.4 2 Sudoeste 6 Oeste 0 -- -- 96
2020-11-13 10:00:00 8.2 0 Calma 5 Oeste 0 -- -- 96
2020-11-13 09:00:00 8 0 Calma 6 Noroeste 0 -- -- 96
2020-11-13 08:00:00 7.9 0 Calma 4 Sudeste 0 -- -- 97
2020-11-13 07:00:00 7.9 3 Sudeste 8 Sudeste 0 -- -- 97
2020-11-13 06:00:00 7.9 4 Sur 10 Sudeste 0 -- -- 98
2020-11-13 05:00:00 7.9 6 Sur 12 Sudeste 0 -- -- 98
2020-11-13 04:00:00 8 5 Sur 11 Sudeste 0 -- -- 98
2020-11-13 03:00:00 8.1 5 Sur 12 Sudeste 0 -- -- 98
2020-11-13 02:00:00 8.2 6 Sur 11 Sudoeste 0 -- -- 98
2020-11-13 01:00:00 8.6 4 Sur 12 Sudoeste 0 -- -- 98
2020-11-13 00:00:00 8.5 5 Sur 13 Sur 0 -- -- 97
2020-11-12 23:00:00 8.5 3 Este 13 Sur 0 -- -- 97
2020-11-12 22:00:00 8.5 6 Sudeste 10 Sudeste 0 -- -- 97
2020-11-12 21:00:00 8.5 3 Sudeste 15 Sudeste 0 -- -- 97
2020-11-12 20:00:00 8.7 9 Sur 13 Sudeste 0 -- -- 96
2020-11-12 19:00:00 8.9 2 Norte 6 Este 0 -- -- 95
2020-11-12 18:00:00 8.9 0 Calma 6 Este 0 -- -- 94
2020-11-12 17:00:00 9.3 3 Nordeste 13 Nordeste 0 -- -- 92
2020-11-12 16:00:00 10 6 Nordeste 11 Este 0 -- -- 88
2020-11-12 15:00:00 9.8 5 Nordeste 12 Norte 0 -- -- 90
2020-11-12 14:00:00 9.5 5 Este 13 Nordeste 0 -- -- 96
2020-11-12 13:00:00 8.7 3 Este 8 Nordeste 0 -- -- 99
2020-11-12 12:00:00 7.7 3 Nordeste 6 Nordeste 0 -- -- 99
2020-11-12 11:00:00 7.1 0 Calma 8 Sur 0 -- -- 99
2020-11-12 10:00:00 6.8 0 Calma 6 Noroeste 0 -- -- 99
2020-11-12 09:00:00 6.8 2 Norte 8 Nordeste 0 -- -- 99
2020-11-12 08:00:00 6.9 0 Calma 4 Sudeste 0 -- -- 99
2020-11-12 07:00:00 7.1 0 Calma 4 Sudeste 0 -- -- 98
2020-11-12 06:00:00 7.1 3 Oeste 6 Oeste 0 -- -- 98
2020-11-12 05:00:00 7.5 0 Calma 6 Norte 0 -- -- 98
2020-11-12 04:00:00 7.5 3 Nordeste 7 Nordeste 0 -- -- 98
2020-11-12 03:00:00 7.2 0 Calma 8 Oeste 0 -- -- 98
2020-11-12 02:00:00 7.6 5 Oeste 8 Oeste 0 -- -- 97
2020-11-12 01:00:00 8.1 2 Oeste 6 Norte 0 -- -- 98
2020-11-12 00:00:00 8.2 2 Nordeste 10 Norte 0 -- -- 98
2020-11-11 23:00:00 8.4 3 Este 7 Este 0 -- -- 97
2020-11-11 22:00:00 8.7 4 Nordeste 7 Nordeste 0 -- -- 97
2020-11-11 21:00:00 8.9 2 Sudoeste 8 Sudoeste 0 -- -- 96
2020-11-11 20:00:00 9.1 4 Oeste 7 Oeste 0 -- -- 95
2020-11-11 19:00:00 9.3 2 Norte 10 Oeste 0 -- -- 94
2020-11-11 18:00:00 9.8 4 Noroeste 12 Norte 0 -- -- 90
2020-11-11 17:00:00 11.7 6 Nordeste 12 Nordeste 0 -- -- 84
2020-11-11 16:00:00 11.9 4 Noroeste 10 Norte 0 -- -- 84
2020-11-11 15:00:00 12.2 5 Norte 10 Noroeste 0 -- -- 82
2020-11-11 14:00:00 10.6 4 Norte 8 Norte 0 -- -- 89
2020-11-11 13:00:00 8.4 3 Noroeste 9 Norte 0 -- -- 95
2020-11-11 12:00:00 7.9 4 Norte 10 Norte 0 -- -- 95
2020-11-11 11:00:00 7.3 6 Norte 10 Norte 0 -- -- 93
2020-11-11 10:00:00 6.4 3 Nordeste 8 Nordeste 0 -- -- 94
2020-11-11 09:00:00 5.2 2 Noroeste 5 Oeste 0 -- -- 95
2020-11-11 08:00:00 4.4 4 Oeste 9 Oeste 0 -- -- 94
2020-11-11 07:00:00 5 3 Oeste 10 Oeste 0 -- -- 93
2020-11-11 06:00:00 5.6 5 Oeste 10 Oeste 0 -- -- 93
2020-11-11 05:00:00 5.6 3 Oeste 8 Oeste 0 -- -- 90
2020-11-11 04:00:00 6.7 0 Calma 8 Oeste 0 -- -- 90
2020-11-11 03:00:00 7.2 3 Oeste 8 Oeste 0 -- -- 89
2020-11-11 02:00:00 7.7 2 Sudoeste 9 Oeste 0 -- -- 87
2020-11-11 01:00:00 8.4 4 Oeste 10 Oeste 0 -- -- 85
2020-11-11 00:00:00 8.9 3 Oeste 15 Oeste 0 -- -- 83
2020-11-10 23:00:00 9.5 9 Oeste 17 Oeste 0 -- -- 83
2020-11-10 22:00:00 9.2 6 Oeste 12 Oeste 0 -- -- 86
2020-11-10 21:00:00 9.7 7 Oeste 11 Oeste 0 -- -- 85
2020-11-10 20:00:00 10.2 8 Oeste 13 Oeste 0 -- -- 85
2020-11-10 19:00:00 11.3 8 Oeste 14 Oeste 0 -- -- 82
2020-11-10 18:00:00 13.4 5 Oeste 10 Norte 0 -- -- 74
2020-11-10 17:00:00 16 7 Norte 17 Norte 0 -- -- 62
2020-11-10 16:00:00 17 11 Norte 20 Norte 0 -- -- 58
2020-11-10 15:00:00 17.5 12 Norte 23 Norte 0 -- -- 57
2020-11-10 14:00:00 17.4 10 Norte 24 Norte 0 -- -- 57
2020-11-10 13:00:00 16.7 12 Norte 25 Noroeste 0 -- -- 60
2020-11-10 12:00:00 16.6 9 Noroeste 25 Noroeste 0 -- -- 61
2020-11-10 11:00:00 15 15 Noroeste 30 Noroeste 0 -- -- 68
2020-11-10 10:00:00 12.9 3 Este 6 Oeste 0 -- -- 72
2020-11-10 09:00:00 10.1 4 Oeste 9 Oeste 0 -- -- 81
2020-11-10 08:00:00 8.7 6 Oeste 17 Oeste 0 -- -- 83
2020-11-10 07:00:00 9.3 12 Oeste 21 Oeste 0 -- -- 80
2020-11-10 06:00:00 9.6 11 Oeste 20 Oeste 0 -- -- 79
2020-11-10 05:00:00 9.3 8 Oeste 16 Oeste 0 -- -- 80
2020-11-10 04:00:00 9.4 8 Oeste 18 Oeste 0 -- -- 81
2020-11-10 03:00:00 9.3 8 Oeste 18 Sudoeste 0 -- -- 83
2020-11-10 02:00:00 9.6 7 Oeste 17 Oeste 0 -- -- 83
2020-11-10 01:00:00 9.6 8 Oeste 14 Oeste 0 -- -- 84
2020-11-10 00:00:00 9.6 6 Oeste 13 Sudoeste 0 -- -- 85
2020-11-09 23:00:00 10.1 8 Oeste 16 Oeste 0 -- -- 84
2020-11-09 22:00:00 9.5 4 Oeste 11 Oeste 0 -- -- 88
2020-11-09 21:00:00 9.2 0 Calma 12 Oeste 0 -- -- 90
2020-11-09 20:00:00 9.8 8 Oeste 10 Noroeste 0 -- -- 90
2020-11-09 19:00:00 10.5 6 Oeste 9 Oeste 0 -- -- 89
2020-11-09 18:00:00 12.1 3 Sudoeste 6 Oeste 0 -- -- 84
2020-11-09 17:00:00 13.7 0 Calma 13 Norte 0 -- -- 77
2020-11-09 16:00:00 14.9 6 Norte 15 Noroeste 0 -- -- 72
2020-11-09 15:00:00 14.8 8 Nordeste 15 Nordeste 0 -- -- 72
2020-11-09 14:00:00 14.5 5 Nordeste 11 Nordeste 0 -- -- 73
2020-11-09 13:00:00 13.2 3 Noroeste 8 Norte 0 -- -- 80
2020-11-09 12:00:00 11.2 3 Nordeste 10 Este 0 -- -- 89
2020-11-09 11:00:00 10.3 3 Nordeste 11 Nordeste 0 -- -- 93
2020-11-09 10:00:00 9.9 2 Noroeste 9 Oeste 0 -- -- 93
2020-11-09 09:00:00 8.7 3 Sudeste 7 Norte 0 -- -- 96
2020-11-09 08:00:00 7.2 4 Oeste 8 Sudoeste 0 -- -- 96
2020-11-09 07:00:00 6.5 0 Calma 9 Oeste 0 -- -- 96
2020-11-09 06:00:00 6.2 4 Sudoeste 10 Oeste 0 -- -- 96
2020-11-09 05:00:00 6.1 5 Oeste 10 Oeste 0 -- -- 95
2020-11-09 04:00:00 6.7 0 Calma 10 Oeste 0 -- -- 95
2020-11-09 03:00:00 7.3 3 Sur 13 Oeste 0 -- -- 94
2020-11-09 02:00:00 7.5 3 Oeste 11 Oeste 0 -- -- 94
2020-11-09 01:00:00 7.7 2 Sudoeste 5 Sudoeste 0 -- -- 93
2020-11-09 00:00:00 7.8 4 Oeste 9 Oeste 0 -- -- 93
2020-11-08 23:00:00 8.3 3 Sudoeste 15 Oeste 0 -- -- 92
2020-11-08 22:00:00 8.8 4 Oeste 13 Oeste 0 -- -- 92
2020-11-08 21:00:00 9.3 4 Oeste 14 Oeste 0 -- -- 90
2020-11-08 20:00:00 10.3 3 Sudoeste 9 Noroeste 0 -- -- 86
2020-11-08 19:00:00 11.9 2 Sudoeste 15 Este 0 -- -- 81
2020-11-08 18:00:00 13.9 3 Nordeste 15 Este 0 -- -- 75
2020-11-08 17:00:00 15.8 10 Este 22 Este 0 -- -- 69
2020-11-08 16:00:00 17.2 8 Este 17 Nordeste 0 -- -- 66
2020-11-08 15:00:00 15.9 10 Nordeste 19 Este 0 -- -- 72
2020-11-08 14:00:00 16.1 8 Nordeste 18 Nordeste 0 -- -- 72
2020-11-08 13:00:00 13.9 7 Nordeste 18 Nordeste 0 -- -- 84
2020-11-08 12:00:00 14.8 6 Nordeste 16 Este 0 -- -- 73
2020-11-08 11:00:00 13.9 0 Calma 7 Este 0 -- -- 80
2020-11-08 10:00:00 11.9 5 Este 8 Nordeste 0 -- -- 89
2020-11-08 09:00:00 8.3 3 Oeste 8 Oeste 0 -- -- 95
2020-11-08 08:00:00 7.2 0 Calma 15 Noroeste 0 -- -- 94
2020-11-08 07:00:00 7 3 Sudoeste 9 Oeste 0 -- -- 93
2020-11-08 06:00:00 7.3 2 Sudoeste 9 Oeste 0 -- -- 92
2020-11-08 05:00:00 8 5 Noroeste 14 Oeste 0 -- -- 91
2020-11-08 04:00:00 8.7 2 Sur 9 Oeste 0 -- -- 89
2020-11-08 03:00:00 9.5 2 Este 10 Oeste 0 -- -- 86
2020-11-08 02:00:00 10.5 3 Sudoeste 12 Oeste 0 -- -- 82
2020-11-08 01:00:00 10.8 3 Sur 11 Oeste 0 -- -- 82
2020-11-08 00:00:00 11.5 5 Sudoeste 14 Sudoeste 0 -- -- 80
2020-11-07 23:00:00 11.4 4 Sudoeste 13 Oeste 0 -- -- 82
2020-11-07 22:00:00 12.4 6 Sudoeste 15 Oeste 0 -- -- 77
2020-11-07 21:00:00 13.8 7 Sur 20 Oeste 0 -- -- 72
2020-11-07 20:00:00 14.7 8 Oeste 29 Sudoeste 0 -- -- 69
2020-11-07 19:00:00 14.8 10 Oeste 26 Sudoeste 0 -- -- 65
2020-11-07 18:00:00 14.5 8 Oeste 24 Sudoeste 0 -- -- 71
2020-11-07 17:00:00 15.1 10 Oeste 34 Oeste 0 -- -- 68
2020-11-07 16:00:00 16.3 10 Oeste 30 Sudoeste 0 -- -- 67
2020-11-07 15:00:00 16.3 7 Oeste 20 Sudoeste 0 -- -- 70
2020-11-07 14:00:00 16 4 Sur 14 Sudoeste 0 -- -- 74
2020-11-07 13:00:00 14.6 6 Sudeste 17 Sur 0 -- -- 86
2020-11-07 12:00:00 14.2 6 Nordeste 17 Nordeste 0 -- -- 90
2020-11-07 11:00:00 12.7 0 Calma 15 Sudeste 0 -- -- 94
2020-11-07 10:00:00 12 5 Norte 15 Este 0.2 -- -- 94
2020-11-07 09:00:00 11.8 2 Sur 10 Noroeste 0 -- -- 93
2020-11-07 08:00:00 12.1 5 Sur 22 Este 0 -- -- 91
2020-11-07 07:00:00 12.2 6 Sudoeste 43 Oeste 7.8 -- -- 90
2020-11-07 06:00:00 14.3 17 Sudeste 46 Sudeste 0.8 -- -- 93
2020-11-07 05:00:00 14.5 21 Sudeste 37 Sur 0.8 -- -- 93
2020-11-07 04:00:00 14.4 10 Sudeste 28 Sudeste 0.6 -- -- 93
2020-11-07 03:00:00 14.6 15 Sudeste 37 Sudeste 0.2 -- -- 92
2020-11-07 02:00:00 14.5 17 Sudeste 40 Sudeste 0.2 -- -- 93
2020-11-07 01:00:00 14.8 23 Sudeste 40 Sudeste 0 -- -- 91
2020-11-07 00:00:00 14.9 19 Sudeste 48 Sudeste 0 -- -- 91
2020-11-06 23:00:00 14.9 24 Sudeste 52 Sudeste 0.2 -- -- 90
2020-11-06 22:00:00 14.8 32 Sudeste 51 Sudeste 0.2 -- -- 91
2020-11-06 21:00:00 15.1 30 Sudeste 55 Sudeste 0 -- -- 88
2020-11-06 20:00:00 15.1 23 Sudeste 48 Sudeste 0 -- -- 88
2020-11-06 19:00:00 15 21 Sudeste 47 Sudeste 0 -- -- 89
2020-11-06 18:00:00 15.2 23 Sudeste 54 Sudeste 0 -- -- 88
2020-11-06 17:00:00 15.4 23 Sudeste 49 Sudeste 0 -- -- 88
2020-11-06 16:00:00 15.4 17 Sudeste 33 Sudeste 0 -- -- 90
2020-11-06 15:00:00 15.1 18 Sudeste 39 Sudeste 0 -- -- 92
2020-11-06 14:00:00 14.4 14 Sudeste 42 Sudeste 0 -- -- 93
2020-11-06 13:00:00 14 22 Sudeste 43 Este 0 -- -- 94
2020-11-06 12:00:00 13.5 22 Sudeste 43 Sudeste 0 -- -- 96
2020-11-06 11:00:00 13.1 12 Sudeste 26 Sudeste 0 -- -- 96
2020-11-06 10:00:00 12.7 8 Sudeste 22 Este 0.2 -- -- 97
2020-11-06 09:00:00 12.5 7 Sudeste 18 Sudeste 0.2 -- -- 97
2020-11-06 08:00:00 12.1 8 Sudeste 18 Sudeste 0 -- -- 97
2020-11-06 07:00:00 12.1 10 Este 30 Sudeste 0 -- -- 96
2020-11-06 06:00:00 12.2 20 Sudeste 37 Sudeste 0 -- -- 96
2020-11-06 05:00:00 12.2 12 Sudeste 24 Sudeste 0.8 -- -- 96
2020-11-06 04:00:00 12 12 Sudeste 23 Sudeste 0 -- -- 95
2020-11-06 03:00:00 12.2 12 Sur 24 Sudeste 0 -- -- 95
2020-11-06 02:00:00 11.9 5 Este 22 Sur 0 -- -- 95
2020-11-06 01:00:00 11.9 17 Sudeste 30 Sudeste 0 -- -- 94
2020-11-06 00:00:00 11.8 15 Sur 27 Sudeste 0 -- -- 93
2020-11-05 23:00:00 11.2 4 Sudeste 19 Sudeste 4 -- -- 94
2020-11-05 22:00:00 11.3 6 Sur 14 Sur 1.6 -- -- 93
2020-11-05 21:00:00 11.6 9 Sur 18 Sudeste 0 -- -- 90
2020-11-05 20:00:00 11.3 0 Calma 5 Sudoeste 0 -- -- 90
2020-11-05 19:00:00 11.3 3 Este 11 Este 0 -- -- 91
2020-11-05 18:00:00 11 5 Sudeste 18 Sudeste 0 -- -- 91
2020-11-05 17:00:00 10.7 7 Sudeste 19 Sudeste 0 -- -- 90
2020-11-05 16:00:00 10.7 10 Sudeste 19 Sudeste 0 -- -- 88
2020-11-05 15:00:00 11.2 9 Sudeste 24 Sudeste 0 -- -- 84
2020-11-05 14:00:00 11.3 11 Sudeste 26 Este 0 -- -- 82
2020-11-05 13:00:00 11.4 12 Sudeste 24 Sudeste 0 -- -- 82
2020-11-05 12:00:00 10.8 12 Sudeste 25 Sudeste 0 -- -- 83
2020-11-05 11:00:00 8.8 6 Nordeste 15 Nordeste 0 -- -- 94
2020-11-05 10:00:00 8.1 9 Nordeste 16 Nordeste 0 -- -- 95
2020-11-05 09:00:00 7.8 6 Nordeste 14 Nordeste 0 -- -- 96
2020-11-05 08:00:00 7.6 3 Norte 4 Nordeste 0 -- -- 96
2020-11-05 07:00:00 7.7 0 Calma 5 Este 0 -- -- 96
2020-11-05 06:00:00 7.7 0 Calma 3 Este 0 -- -- 96
2020-11-05 05:00:00 7.6 0 Calma 5 Nordeste 0.2 -- -- 96
2020-11-05 04:00:00 7.7 2 Este 6 Este 0.2 -- -- 96
2020-11-05 03:00:00 7.7 0 Calma 2 Sudeste 0 -- -- 96
2020-11-05 02:00:00 7.6 0 Calma 5 Norte 0 -- -- 96
2020-11-05 01:00:00 7.7 0 Calma 5 Nordeste 0 -- -- 96
2020-11-05 00:00:00 7.7 0 Calma 5 Norte 0 -- -- 95
2020-11-04 23:00:00 7.5 2 Norte 8 Norte 0.2 -- -- 95
2020-11-04 22:00:00 7.7 3 Norte 8 Norte 0.6 -- -- 94
2020-11-04 21:00:00 7.9 3 Norte 9 Norte 0.6 -- -- 93
2020-11-04 20:00:00 8.2 4 Norte 9 Norte 0 -- -- 91
2020-11-04 19:00:00 8.5 3 Norte 8 Norte 0.2 -- -- 85
2020-11-04 18:00:00 8.9 3 Nordeste 7 Nordeste 0 -- -- 72
2020-11-04 17:00:00 9.2 4 Este 10 Este 0 -- -- 69
2020-11-04 16:00:00 9.6 5 Este 14 Este 0 -- -- 67
2020-11-04 15:00:00 9.8 6 Nordeste 13 Nordeste 0 -- -- 66
2020-11-04 14:00:00 9.9 6 Norte 18 Norte 0 -- -- 65
2020-11-04 13:00:00 9.3 8 Norte 20 Norte 0 -- -- 64
2020-11-04 12:00:00 9 11 Norte 29 Norte 0 -- -- 65
2020-11-04 11:00:00 9.1 10 Norte 26 Norte 0 -- -- 65
2020-11-04 10:00:00 8.7 12 Noroeste 21 Noroeste 0 -- -- 65
2020-11-04 09:00:00 8.1 5 Oeste 10 Oeste 0 -- -- 68
2020-11-04 08:00:00 7.7 4 Oeste 19 Oeste 0 -- -- 71
2020-11-04 07:00:00 7.8 10 Oeste 21 Oeste 0 -- -- 71
2020-11-04 06:00:00 7.7 12 Noroeste 22 Oeste 0 -- -- 72
2020-11-04 05:00:00 7.8 13 Oeste 19 Oeste 0 -- -- 72
2020-11-04 04:00:00 7.7 11 Oeste 19 Oeste 0 -- -- 74
2020-11-04 03:00:00 7.7 10 Oeste 16 Oeste 0 -- -- 75
2020-11-04 02:00:00 7.8 10 Oeste 24 Noroeste 0 -- -- 75
2020-11-04 01:00:00 8.4 11 Noroeste 27 Noroeste 0 -- -- 73
2020-11-04 00:00:00 8.7 12 Noroeste 21 Noroeste 0 -- -- 74
2020-11-03 23:00:00 8.9 11 Noroeste 23 Noroeste 0 -- -- 75
2020-11-03 22:00:00 9.4 9 Noroeste 21 Noroeste 0 -- -- 74
2020-11-03 21:00:00 9.5 10 Noroeste 21 Noroeste 0 -- -- 76
2020-11-03 20:00:00 10.1 13 Noroeste 24 Noroeste 0 -- -- 75
2020-11-03 19:00:00 10.7 13 Noroeste 33 Norte 0 -- -- 76
2020-11-03 18:00:00 11.8 20 Norte 37 Noroeste 0 -- -- 75
2020-11-03 17:00:00 12 11 Noroeste 24 Noroeste 0.2 -- -- 76
2020-11-03 16:00:00 11.5 12 Noroeste 25 Noroeste 0.2 -- -- 82
2020-11-03 15:00:00 12 13 Noroeste 25 Noroeste 0 -- -- 76
2020-11-03 14:00:00 11.9 11 Noroeste 24 Noroeste 0.2 -- -- 76
2020-11-03 13:00:00 11.8 9 Noroeste 23 Noroeste 0 -- -- 82
2020-11-03 12:00:00 11.6 11 Noroeste 25 Noroeste 0.2 -- -- 85
2020-11-03 11:00:00 11.6 8 Noroeste 18 Noroeste 0.6 -- -- 88
2020-11-03 10:00:00 11.4 10 Noroeste 24 Noroeste 1 -- -- 88
2020-11-03 09:00:00 11.5 8 Noroeste 18 Noroeste 0.8 -- -- 88
2020-11-03 08:00:00 12.2 9 Noroeste 24 Noroeste 0.2 -- -- 84
2020-11-03 07:00:00 13 13 Noroeste 27 Norte 0 -- -- 78
2020-11-03 06:00:00 13.6 9 Norte 21 Noroeste 0 -- -- 76
2020-11-03 05:00:00 13.7 7 Norte 20 Noroeste 0 -- -- 76
2020-11-03 04:00:00 13.8 12 Norte 20 Norte 0 -- -- 75
2020-11-03 03:00:00 13.9 6 Noroeste 17 Norte 0 -- -- 77
2020-11-03 02:00:00 13.9 4 Norte 14 Noroeste 0 -- -- 77
2020-11-03 01:00:00 14.1 8 Noroeste 13 Oeste 0 -- -- 80
2020-11-03 00:00:00 14.2 8 Noroeste 16 Norte 0 -- -- 80
2020-11-02 23:00:00 14.7 5 Noroeste 13 Noroeste 0 -- -- 79
2020-11-02 22:00:00 15.2 4 Noroeste 18 Noroeste 0 -- -- 80
2020-11-02 21:00:00 13.8 0 Calma 6 Noroeste 0 -- -- 80
2020-11-02 20:00:00 14.7 2 Sudoeste 10 Oeste 0 -- -- 77
2020-11-02 19:00:00 16 6 Oeste 9 Oeste 0 -- -- 72
2020-11-02 18:00:00 19 3 Oeste 11 Norte 0 -- -- 63
2020-11-02 17:00:00 20.1 7 Nordeste 14 Nordeste 0 -- -- 59
2020-11-02 16:00:00 19.9 5 Norte 16 Nordeste 0 -- -- 59
2020-11-02 15:00:00 20.2 10 Norte 20 Nordeste 0 -- -- 58
2020-11-02 14:00:00 20 9 Nordeste 16 Nordeste 0 -- -- 57
2020-11-02 13:00:00 19.3 6 Nordeste 15 Nordeste 0 -- -- 59
2020-11-02 12:00:00 18.1 8 Nordeste 17 Nordeste 0 -- -- 64
2020-11-02 11:00:00 18.7 6 Nordeste 13 Nordeste 0 -- -- 63
2020-11-02 10:00:00 16.7 2 Sudeste 8 Este 0 -- -- 72
2020-11-02 09:00:00 11.6 0 Calma 8 Oeste 0 -- -- 91
2020-11-02 08:00:00 10 3 Noroeste 8 Oeste 0 -- -- 92
2020-11-02 07:00:00 10 3 Sudoeste 8 Oeste 0 -- -- 90
2020-11-02 06:00:00 10.4 0 Calma 6 Noroeste 0 -- -- 88
2020-11-02 05:00:00 11.4 0 Calma 9 Oeste 0 -- -- 86
2020-11-02 04:00:00 11.6 0 Calma 10 Oeste 0 -- -- 86
2020-11-02 03:00:00 11.7 4 Oeste 7 Noroeste 0 -- -- 85
2020-11-02 02:00:00 11.4 3 Oeste 9 Oeste 0 -- -- 84
2020-11-02 01:00:00 11.9 2 Oeste 7 Sur 0 -- -- 83
2020-11-02 00:00:00 12.3 2 Sudoeste 5 Oeste 0 -- -- 82
2020-11-01 23:00:00 12.5 4 Oeste 8 Oeste 0 -- -- 82
2020-11-01 22:00:00 13 0 Calma 9 Oeste 0 -- -- 80
2020-11-01 21:00:00 13.5 5 Oeste 12 Oeste 0 -- -- 78
2020-11-01 20:00:00 14.2 6 Oeste 10 Oeste 0 -- -- 76
2020-11-01 19:00:00 16.3 3 Sudoeste 6 Oeste 0 -- -- 69
2020-11-01 18:00:00 19.1 2 Noroeste 10 Nordeste 0 -- -- 60
2020-11-01 17:00:00 20 4 Nordeste 10 Nordeste 0 -- -- 56
2020-11-01 16:00:00 21.1 5 Nordeste 16 Norte 0 -- -- 52
2020-11-01 15:00:00 21.4 8 Nordeste 16 Nordeste 0 -- -- 52
2020-11-01 14:00:00 20.6 8 Nordeste 16 Nordeste 0 -- -- 54
2020-11-01 13:00:00 20 8 Nordeste 15 Nordeste 0 -- -- 55
2020-11-01 12:00:00 19.6 7 Este 14 Nordeste 0 -- -- 56
2020-11-01 11:00:00 18.1 4 Este 11 Sudeste 0 -- -- 61
2020-11-01 10:00:00 15.4 3 Este 5 Este 0 -- -- 71
2020-11-01 09:00:00 11.2 2 Oeste 9 Oeste 0 -- -- 90
2020-11-01 08:00:00 7.9 0 Calma 12 Oeste 0 -- -- 92
2020-11-01 07:00:00 8.6 4 Oeste 13 Oeste 0 -- -- 89
2020-11-01 06:00:00 9.1 2 Oeste 6 Oeste 0 -- -- 87
2020-11-01 05:00:00 9.6 3 Oeste 8 Noroeste 0 -- -- 84
2020-11-01 04:00:00 9.5 2 Sur 10 Oeste 0 -- -- 83
2020-11-01 03:00:00 10.1 0 Calma 11 Oeste 0 -- -- 79
2020-11-01 02:00:00 10.2 3 Sudeste 10 Sudoeste 0 -- -- 77
2020-11-01 01:00:00 10 3 Sudoeste 9 Oeste 0 -- -- 77
2020-11-01 00:00:00 10.3 3 Sudoeste 10 Sudeste 0 -- -- 75
2020-10-31 23:00:00 11.6 2 Sur 10 Sur 0 -- -- 71
2020-10-31 22:00:00 11.2 4 Sudoeste 9 Sudoeste 0 -- -- 73
2020-10-31 21:00:00 11.2 0 Calma 9 Oeste 0 -- -- 74
2020-10-31 20:00:00 12.2 3 Sudoeste 13 Oeste 0 -- -- 71
2020-10-31 19:00:00 13.9 4 Oeste 8 Oeste 0 -- -- 66
2020-10-31 18:00:00 17.3 2 Oeste 8 Sudoeste 0 -- -- 56
2020-10-31 17:00:00 18.7 3 Norte 19 Norte 0 -- -- 49
2020-10-31 16:00:00 19.2 12 Norte 23 Norte 0 -- -- 54
2020-10-31 15:00:00 21 6 Nordeste 11 Este 0 -- -- 50
2020-10-31 14:00:00 20 6 Este 12 Nordeste 0 -- -- 53
2020-10-31 13:00:00 18.2 2 Sur 9 Este 0 -- -- 56
2020-10-31 12:00:00 15.4 4 Sudeste 13 Nordeste 0 -- -- 64
2020-10-31 11:00:00 13.9 6 Nordeste 14 Este 0 -- -- 68
2020-10-31 10:00:00 12.5 0 Calma 5 Sur 0 -- -- 73
2020-10-31 09:00:00 8.5 3 Noroeste 8 Oeste 0 -- -- 90
2020-10-31 08:00:00 6.5 3 Oeste 7 Sudoeste 0 -- -- 90
2020-10-31 07:00:00 6 0 Calma 5 Noroeste 0 -- -- 90
2020-10-31 06:00:00 6.3 2 Oeste 10 Oeste 0 -- -- 89
2020-10-31 05:00:00 6.8 5 Oeste 17 Oeste 0 -- -- 87
2020-10-31 04:00:00 7.5 4 Oeste 10 Oeste 0 -- -- 85
2020-10-31 03:00:00 7.9 0 Calma 9 Oeste 0 -- -- 83
2020-10-31 02:00:00 8.2 3 Oeste 10 Oeste 0 -- -- 83
2020-10-31 01:00:00 8.7 3 Sudoeste 12 Oeste 0 -- -- 82
2020-10-31 00:00:00 9 3 Oeste 9 Oeste 0 -- -- 82
2020-10-30 23:00:00 9.9 4 Oeste 6 Noroeste 0 -- -- 80
2020-10-30 22:00:00 10.2 0 Calma 8 Oeste 0 -- -- 81
2020-10-30 21:00:00 10.6 2 Sudoeste 9 Oeste 0 -- -- 82
2020-10-30 20:00:00 11 4 Oeste 12 Oeste 0 -- -- 81
2020-10-30 19:00:00 12.5 3 Oeste 12 Oeste 0 -- -- 72
2020-10-30 18:00:00 16.1 3 Noroeste 6 Norte 0 -- -- 63
2020-10-30 17:00:00 17.5 3 Nordeste 9 Este 0 -- -- 58
2020-10-30 16:00:00 18.2 4 Nordeste 10 Nordeste 0 -- -- 57
2020-10-30 15:00:00 18.5 4 Norte 11 Este 0 -- -- 55
2020-10-30 14:00:00 17.5 7 Nordeste 16 Nordeste 0 -- -- 57
2020-10-30 13:00:00 16.9 6 Nordeste 13 Nordeste 0 -- -- 60
2020-10-30 12:00:00 16.1 4 Este 10 Nordeste 0 -- -- 62
2020-10-30 11:00:00 15.3 3 Sudeste 7 Sudeste 0 -- -- 65
2020-10-30 10:00:00 12.9 2 Sur 4 Sur 0 -- -- 74
2020-10-30 09:00:00 8.1 2 Oeste 10 Oeste 0 -- -- 90
2020-10-30 08:00:00 5.1 7 Oeste 9 Oeste 0 -- -- 91
2020-10-30 07:00:00 5.2 3 Oeste 8 Oeste 0 -- -- 90
2020-10-30 06:00:00 5.7 4 Oeste 10 Oeste 0 -- -- 90
2020-10-30 05:00:00 6.1 3 Oeste 10 Oeste 0 -- -- 88
2020-10-30 04:00:00 7 5 Oeste 9 Oeste 0 -- -- 87
2020-10-30 03:00:00 7.3 6 Oeste 8 Oeste 0 -- -- 86
2020-10-30 02:00:00 8.5 4 Noroeste 10 Oeste 0 -- -- 84
2020-10-30 01:00:00 9.5 5 Oeste 9 Sudoeste 0 -- -- 82
2020-10-30 00:00:00 9.5 4 Oeste 9 Oeste 0 -- -- 83
2020-10-29 23:00:00 10 5 Oeste 8 Oeste 0 -- -- 83
2020-10-29 22:00:00 10.3 5 Oeste 9 Oeste 0 -- -- 82
2020-10-29 21:00:00 10.9 5 Oeste 10 Oeste 0 -- -- 81
2020-10-29 20:00:00 11.6 7 Oeste 9 Oeste 0 -- -- 80
2020-10-29 19:00:00 13.3 3 Oeste 7 Oeste 0 -- -- 72
2020-10-29 18:00:00 16.8 3 Nordeste 12 Nordeste 0 -- -- 61
2020-10-29 17:00:00 17.8 7 Nordeste 13 Nordeste 0 -- -- 58
2020-10-29 16:00:00 18.7 5 Este 17 Este 0 -- -- 55
2020-10-29 15:00:00 19.2 9 Nordeste 17 Nordeste 0 -- -- 53
2020-10-29 14:00:00 18.7 6 Este 16 Nordeste 0 -- -- 55
2020-10-29 13:00:00 17.5 8 Nordeste 16 Nordeste 0 -- -- 59
2020-10-29 12:00:00 16.4 5 Este 11 Este 0 -- -- 63
2020-10-29 11:00:00 14.5 5 Nordeste 12 Norte 0 -- -- 70
2020-10-29 10:00:00 14.5 6 Este 12 Oeste 0 -- -- 72
2020-10-29 09:00:00 10.6 10 Oeste 15 Oeste 0 -- -- 81
2020-10-29 08:00:00 8.5 6 Oeste 15 Oeste 0 -- -- 90
2020-10-29 07:00:00 7.5 2 Sudoeste 8 Oeste 0 -- -- 91
2020-10-29 06:00:00 8.1 3 Sur 10 Oeste 0 -- -- 90
2020-10-29 05:00:00 8.9 4 Oeste 9 Oeste 0 -- -- 89
2020-10-29 04:00:00 9.2 4 Oeste 12 Oeste 0 -- -- 87
2020-10-29 03:00:00 9.9 8 Oeste 15 Oeste 0 -- -- 84
2020-10-29 02:00:00 10.4 4 Oeste 13 Sudoeste 0 -- -- 85
2020-10-29 01:00:00 9.9 4 Oeste 10 Oeste 0 -- -- 88
2020-10-29 00:00:00 9.7 6 Oeste 9 Oeste 0 -- -- 87
2020-10-28 23:00:00 10.8 0 Calma 9 Sudoeste 0 -- -- 84
2020-10-28 22:00:00 11.5 5 Noroeste 13 Norte 0 -- -- 80
2020-10-28 21:00:00 11.8 5 Oeste 11 Oeste 0 -- -- 81
2020-10-28 20:00:00 11.6 7 Oeste 13 Oeste 0 -- -- 81
2020-10-28 19:00:00 12.8 5 Oeste 9 Oeste 0 -- -- 77
2020-10-28 18:00:00 16.3 4 Sudoeste 11 Norte 0 -- -- 65
2020-10-28 17:00:00 17.3 5 Norte 16 Norte 0 -- -- 62
2020-10-28 16:00:00 17.5 8 Norte 21 Norte 0 -- -- 61
2020-10-28 15:00:00 18.2 11 Nordeste 24 Nordeste 0 -- -- 58
2020-10-28 14:00:00 21.2 11 Oeste 31 Oeste 0 -- -- 49
2020-10-28 13:00:00 18.8 18 Oeste 33 Oeste 0 -- -- 57
2020-10-28 12:00:00 16.4 6 Este 14 Nordeste 0 -- -- 62
2020-10-28 11:00:00 13.2 5 Este 9 Nordeste 0 -- -- 71
2020-10-28 10:00:00 11.8 2 Nordeste 10 Oeste 0 -- -- 75
2020-10-28 09:00:00 9.7 2 Sur 6 Sudoeste 0 -- -- 84
2020-10-28 08:00:00 9 4 Oeste 8 Oeste 0 -- -- 83
2020-10-28 07:00:00 9.5 2 Noroeste 8 Nordeste 0 -- -- 80
2020-10-28 06:00:00 9.9 3 Este 11 Nordeste 0 -- -- 78
2020-10-28 05:00:00 10.6 7 Nordeste 15 Nordeste 0 -- -- 72
2020-10-28 04:00:00 10.2 5 Sur 10 Sudeste 0 -- -- 73
2020-10-28 03:00:00 11.2 3 Sudeste 19 Sudoeste 0 -- -- 68
2020-10-28 02:00:00 12.6 9 Sudoeste 25 Sudoeste 0 -- -- 70
2020-10-28 01:00:00 13.2 9 Sudoeste 25 Sudoeste 0 -- -- 69
2020-10-28 00:00:00 12 8 Sur 13 Sur 0 -- -- 64
2020-10-27 23:00:00 12.3 2 Sudoeste 12 Oeste 0 -- -- 63
2020-10-27 22:00:00 12.5 4 Sudoeste 10 Oeste 0 -- -- 62
2020-10-27 21:00:00 13 4 Sudoeste 27 Sudoeste 0 -- -- 59
2020-10-27 20:00:00 13.2 14 Oeste 36 Oeste 0 -- -- 63
2020-10-27 19:00:00 13.1 13 Oeste 41 Oeste 0 -- -- 64
2020-10-27 18:00:00 13.6 21 Oeste 42 Oeste 0 -- -- 62
2020-10-27 17:00:00 14.3 18 Oeste 46 Oeste 0 -- -- 59
2020-10-27 16:00:00 15.5 18 Oeste 46 Oeste 0 -- -- 54
2020-10-27 15:00:00 17.1 18 Oeste 48 Oeste 0 -- -- 48
2020-10-27 14:00:00 17 19 Oeste 45 Oeste 0 -- -- 47
2020-10-27 13:00:00 15.8 22 Oeste 46 Oeste 0 -- -- 50
2020-10-27 12:00:00 15.6 16 Oeste 40 Oeste 0 -- -- 49
2020-10-27 11:00:00 13.4 10 Sur 38 Sudoeste 0 -- -- 51
2020-10-27 10:00:00 12.7 12 Oeste 33 Oeste 0 -- -- 57
2020-10-27 09:00:00 11.2 15 Oeste 36 Sudoeste 0 -- -- 62
2020-10-27 08:00:00 10.3 17 Oeste 45 Oeste 0 -- -- 63
2020-10-27 07:00:00 9.7 14 Oeste 35 Oeste 0 -- -- 66
2020-10-27 06:00:00 9.5 13 Oeste 31 Sudoeste 0 -- -- 66
2020-10-27 05:00:00 9 12 Oeste 34 Oeste 0 -- -- 68
2020-10-27 04:00:00 9.3 15 Oeste 33 Oeste 0 -- -- 67
2020-10-27 03:00:00 9.2 13 Oeste 29 Oeste 0 -- -- 69
2020-10-27 02:00:00 9 14 Oeste 25 Noroeste 0 -- -- 70
2020-10-27 01:00:00 8.8 10 Oeste 19 Oeste 0 -- -- 70
2020-10-27 00:00:00 9.1 12 Oeste 22 Oeste 0 -- -- 69
2020-10-26 23:00:00 9 7 Oeste 22 Oeste 0 -- -- 68
2020-10-26 22:00:00 9.9 12 Oeste 24 Oeste 0 -- -- 64
2020-10-26 21:00:00 9.8 9 Oeste 22 Oeste 0 -- -- 65
2020-10-26 20:00:00 10.6 0 Calma 9 Sudoeste 0 -- -- 68
2020-10-26 19:00:00 11.5 5 Nordeste 13 Noroeste 0 -- -- 64
2020-10-26 18:00:00 12.7 5 Noroeste 14 Norte 0 -- -- 54
2020-10-26 17:00:00 13.9 8 Noroeste 22 Noroeste 0 -- -- 47
2020-10-26 16:00:00 14.7 18 Noroeste 38 Norte 0 -- -- 41
2020-10-26 15:00:00 15.2 14 Norte 37 Norte 0 -- -- 41
2020-10-26 14:00:00 15.4 20 Norte 38 Noroeste 0 -- -- 44
2020-10-26 13:00:00 15.4 22 Noroeste 36 Noroeste 0 -- -- 39
2020-10-26 12:00:00 14.4 19 Noroeste 44 Noroeste 0 -- -- 42
2020-10-26 11:00:00 13 19 Noroeste 33 Noroeste 0 -- -- 47
2020-10-26 10:00:00 11.5 14 Oeste 31 Oeste 0 -- -- 53
2020-10-26 09:00:00 9.5 17 Oeste 32 Oeste 0 -- -- 63
2020-10-26 08:00:00 7.4 11 Oeste 24 Oeste 0 -- -- 71
2020-10-26 07:00:00 7.4 14 Oeste 27 Oeste 0 -- -- 72
2020-10-26 06:00:00 7.4 12 Oeste 31 Oeste 0 -- -- 72
2020-10-26 05:00:00 6.8 9 Oeste 17 Oeste 0 -- -- 76
2020-10-26 04:00:00 7.4 7 Oeste 13 Oeste 0 -- -- 85
2020-10-26 03:00:00 8.2 4 Este 28 Norte 0 -- -- 83
2020-10-26 02:00:00 9.2 15 Norte 31 Norte 0 -- -- 82
2020-10-26 01:00:00 9.6 7 Noroeste 20 Norte 0 -- -- 83
2020-10-26 00:00:00 10.1 12 Norte 28 Norte 0 -- -- 85